sensor_id;sensor_type;location;lat;lon;timestamp;temperature;humidity
13982;DHT22;7065;50.880;5.502;2023-04-06T00:01:39;1.80;99.90
13982;DHT22;7065;50.880;5.502;2023-04-06T00:04:05;1.80;99.90
13982;DHT22;7065;50.880;5.502;2023-04-06T00:06:32;1.80;99.90
13982;DHT22;7065;50.880;5.502;2023-04-06T00:08:59;1.80;99.90
13982;DHT22;7065;50.880;5.502;2023-04-06T00:11:25;1.70;99.90
13982;DHT22;7065;50.880;5.502;2023-04-06T00:13:51;1.70;99.90
13982;DHT22;7065;50.880;5.502;2023-04-06T00:16:17;1.70;99.90
13982;DHT22;7065;50.880;5.502;2023-04-06T00:18:43;1.70;99.90
13982;DHT22;7065;50.880;5.502;2023-04-06T00:21:11;1.70;99.90
13982;DHT22;7065;50.880;5.502;2023-04-06T00:23:38;1.70;99.90
13982;DHT22;7065;50.880;5.502;2023-04-06T00:26:05;1.60;99.90
13982;DHT22;7065;50.880;5.502;2023-04-06T00:28:30;1.70;99.90
13982;DHT22;7065;50.880;5.502;2023-04-06T00:30:56;1.60;99.90
13982;DHT22;7065;50.880;5.502;2023-04-06T00:33:22;1.60;99.90
13982;DHT22;7065;50.880;5.502;2023-04-06T00:35:48;1.60;99.90
13982;DHT22;7065;50.880;5.502;2023-04-06T00:38:15;1.50;99.90
13982;DHT22;7065;50.880;5.502;2023-04-06T00:40:41;1.50;99.90
13982;DHT22;7065;50.880;5.502;2023-04-06T00:43:07;1.40;99.90
13982;DHT22;7065;50.880;5.502;2023-04-06T00:45:35;1.40;99.90
13982;DHT22;7065;50.880;5.502;2023-04-06T00:48:01;1.30;99.90
13982;DHT22;7065;50.880;5.502;2023-04-06T00:50:30;1.30;99.90
13982;DHT22;7065;50.880;5.502;2023-04-06T00:52:56;1.30;99.90
13982;DHT22;7065;50.880;5.502;2023-04-06T00:55:21;1.30;99.90
13982;DHT22;7065;50.880;5.502;2023-04-06T00:57:47;1.20;99.90
13982;DHT22;7065;50.880;5.502;2023-04-06T01:00:14;1.20;99.90
13982;DHT22;7065;50.880;5.502;2023-04-06T01:02:40;1.20;99.90
13982;DHT22;7065;50.880;5.502;2023-04-06T01:05:07;1.20;99.90
13982;DHT22;7065;50.880;5.502;2023-04-06T01:07:32;1.10;99.90
13982;DHT22;7065;50.880;5.502;2023-04-06T01:09:58;1.10;99.90
13982;DHT22;7065;50.880;5.502;2023-04-06T01:12:24;1.10;99.90
13982;DHT22;7065;50.880;5.502;2023-04-06T01:14:50;1.10;99.90
13982;DHT22;7065;50.880;5.502;2023-04-06T01:17:16;1.00;99.90
13982;DHT22;7065;50.880;5.502;2023-04-06T01:19:42;1.10;99.90
13982;DHT22;7065;50.880;5.502;2023-04-06T01:22:15;1.10;99.90
13982;DHT22;7065;50.880;5.502;2023-04-06T01:24:40;1.00;99.90
13982;DHT22;7065;50.880;5.502;2023-04-06T01:27:07;1.00;99.90
13982;DHT22;7065;50.880;5.502;2023-04-06T01:29:33;1.00;99.90
13982;DHT22;7065;50.880;5.502;2023-04-06T01:31:58;0.90;99.90
13982;DHT22;7065;50.880;5.502;2023-04-06T01:34:24;0.90;99.90
13982;DHT22;7065;50.880;5.502;2023-04-06T01:36:50;0.90;99.90
13982;DHT22;7065;50.880;5.502;2023-04-06T01:39:16;0.80;99.90
13982;DHT22;7065;50.880;5.502;2023-04-06T01:41:42;0.80;99.90
13982;DHT22;7065;50.880;5.502;2023-04-06T01:44:08;0.80;99.90
13982;DHT22;7065;50.880;5.502;2023-04-06T01:46:34;0.80;99.90
13982;DHT22;7065;50.880;5.502;2023-04-06T01:48:59;0.80;99.90
13982;DHT22;7065;50.880;5.502;2023-04-06T01:51:25;0.80;99.90
13982;DHT22;7065;50.880;5.502;2023-04-06T01:53:52;0.80;99.90
13982;DHT22;7065;50.880;5.502;2023-04-06T01:56:17;0.70;99.90
13982;DHT22;7065;50.880;5.502;2023-04-06T01:58:43;0.80;99.90
13982;DHT22;7065;50.880;5.502;2023-04-06T02:01:09;0.70;99.90
13982;DHT22;7065;50.880;5.502;2023-04-06T02:03:36;0.70;99.90
13982;DHT22;7065;50.880;5.502;2023-04-06T02:06:02;0.60;99.90
13982;DHT22;7065;50.880;5.502;2023-04-06T02:08:29;0.60;99.90
13982;DHT22;7065;50.880;5.502;2023-04-06T02:10:54;0.60;99.90
13982;DHT22;7065;50.880;5.502;2023-04-06T02:13:20;0.60;99.90
13982;DHT22;7065;50.880;5.502;2023-04-06T02:15:46;0.60;99.90
13982;DHT22;7065;50.880;5.502;2023-04-06T02:18:12;0.50;99.90
13982;DHT22;7065;50.880;5.502;2023-04-06T02:20:37;0.50;99.90
13982;DHT22;7065;50.880;5.502;2023-04-06T02:23:03;0.50;99.90
13982;DHT22;7065;50.880;5.502;2023-04-06T02:25:29;0.60;99.90
13982;DHT22;7065;50.880;5.502;2023-04-06T02:27:56;0.60;99.90
13982;DHT22;7065;50.880;5.502;2023-04-06T02:30:21;0.60;99.90
13982;DHT22;7065;50.880;5.502;2023-04-06T02:32:47;0.60;99.90
13982;DHT22;7065;50.880;5.502;2023-04-06T02:35:13;0.60;99.90
13982;DHT22;7065;50.880;5.502;2023-04-06T02:37:38;0.60;99.90
13982;DHT22;7065;50.880;5.502;2023-04-06T02:40:04;0.60;99.90
13982;DHT22;7065;50.880;5.502;2023-04-06T02:42:31;0.70;99.90
13982;DHT22;7065;50.880;5.502;2023-04-06T02:44:57;0.70;99.90
13982;DHT22;7065;50.880;5.502;2023-04-06T02:47:24;0.80;99.90
13982;DHT22;7065;50.880;5.502;2023-04-06T02:49:49;0.80;99.90
13982;DHT22;7065;50.880;5.502;2023-04-06T02:52:15;0.90;99.90
13982;DHT22;7065;50.880;5.502;2023-04-06T02:54:43;0.90;99.90
13982;DHT22;7065;50.880;5.502;2023-04-06T02:57:08;1.00;99.90
13982;DHT22;7065;50.880;5.502;2023-04-06T02:59:34;1.00;99.90
13982;DHT22;7065;50.880;5.502;2023-04-06T03:02:00;1.00;99.90
13982;DHT22;7065;50.880;5.502;2023-04-06T03:04:26;1.10;99.90
13982;DHT22;7065;50.880;5.502;2023-04-06T03:06:53;1.10;99.90
13982;DHT22;7065;50.880;5.502;2023-04-06T03:09:19;1.20;99.90
13982;DHT22;7065;50.880;5.502;2023-04-06T03:11:45;1.20;99.90
13982;DHT22;7065;50.880;5.502;2023-04-06T03:14:10;1.20;99.90
13982;DHT22;7065;50.880;5.502;2023-04-06T03:16:36;1.30;99.90
13982;DHT22;7065;50.880;5.502;2023-04-06T03:19:02;1.30;99.90
13982;DHT22;7065;50.880;5.502;2023-04-06T03:21:27;1.30;99.90
13982;DHT22;7065;50.880;5.502;2023-04-06T03:23:53;1.40;99.90
13982;DHT22;7065;50.880;5.502;2023-04-06T03:26:20;1.40;99.90
13982;DHT22;7065;50.880;5.502;2023-04-06T03:28:45;1.40;99.90
13982;DHT22;7065;50.880;5.502;2023-04-06T03:31:11;1.40;99.90
13982;DHT22;7065;50.880;5.502;2023-04-06T03:33:37;1.30;99.90
13982;DHT22;7065;50.880;5.502;2023-04-06T03:36:03;1.30;99.90
13982;DHT22;7065;50.880;5.502;2023-04-06T03:38:29;1.30;99.90
13982;DHT22;7065;50.880;5.502;2023-04-06T03:40:55;1.40;99.90
13982;DHT22;7065;50.880;5.502;2023-04-06T03:43:20;1.40;99.90
13982;DHT22;7065;50.880;5.502;2023-04-06T03:45:47;1.40;99.90
13982;DHT22;7065;50.880;5.502;2023-04-06T03:48:12;1.50;99.90
13982;DHT22;7065;50.880;5.502;2023-04-06T03:50:38;1.50;99.90
13982;DHT22;7065;50.880;5.502;2023-04-06T03:53:04;1.50;99.90
13982;DHT22;7065;50.880;5.502;2023-04-06T03:55:29;1.50;99.90
13982;DHT22;7065;50.880;5.502;2023-04-06T03:57:55;1.60;99.90
13982;DHT22;7065;50.880;5.502;2023-04-06T04:00:21;1.60;99.90
13982;DHT22;7065;50.880;5.502;2023-04-06T04:02:47;1.60;99.90
13982;DHT22;7065;50.880;5.502;2023-04-06T04:05:12;1.60;99.90
13982;DHT22;7065;50.880;5.502;2023-04-06T04:07:38;1.60;99.90
13982;DHT22;7065;50.880;5.502;2023-04-06T04:10:04;1.60;99.90
13982;DHT22;7065;50.880;5.502;2023-04-06T04:12:30;1.50;99.90
13982;DHT22;7065;50.880;5.502;2023-04-06T04:14:56;1.50;99.90
13982;DHT22;7065;50.880;5.502;2023-04-06T04:17:21;1.50;99.90
13982;DHT22;7065;50.880;5.502;2023-04-06T04:19:47;1.50;99.90
13982;DHT22;7065;50.880;5.502;2023-04-06T04:22:13;1.50;99.90
13982;DHT22;7065;50.880;5.502;2023-04-06T04:24:39;1.50;99.90
13982;DHT22;7065;50.880;5.502;2023-04-06T04:27:05;1.50;99.90
13982;DHT22;7065;50.880;5.502;2023-04-06T04:29:31;1.50;99.90
13982;DHT22;7065;50.880;5.502;2023-04-06T04:31:57;1.50;99.90
13982;DHT22;7065;50.880;5.502;2023-04-06T04:34:22;1.60;99.90
13982;DHT22;7065;50.880;5.502;2023-04-06T04:36:52;1.50;99.90
13982;DHT22;7065;50.880;5.502;2023-04-06T04:39:18;1.60;99.90
13982;DHT22;7065;50.880;5.502;2023-04-06T04:41:43;1.60;99.90
13982;DHT22;7065;50.880;5.502;2023-04-06T04:44:09;1.60;99.90
13982;DHT22;7065;50.880;5.502;2023-04-06T04:46:36;1.60;99.90
13982;DHT22;7065;50.880;5.502;2023-04-06T04:49:02;1.70;99.90
13982;DHT22;7065;50.880;5.502;2023-04-06T04:51:27;1.70;99.90
13982;DHT22;7065;50.880;5.502;2023-04-06T04:53:53;1.80;99.90
13982;DHT22;7065;50.880;5.502;2023-04-06T04:56:19;1.90;99.90
13982;DHT22;7065;50.880;5.502;2023-04-06T04:58:44;1.90;99.90
13982;DHT22;7065;50.880;5.502;2023-04-06T05:01:10;2.00;99.90
13982;DHT22;7065;50.880;5.502;2023-04-06T05:03:36;2.00;99.90
13982;DHT22;7065;50.880;5.502;2023-04-06T05:06:05;2.10;99.90
13982;DHT22;7065;50.880;5.502;2023-04-06T05:08:31;2.20;99.90
13982;DHT22;7065;50.880;5.502;2023-04-06T05:10:57;2.20;99.90
13982;DHT22;7065;50.880;5.502;2023-04-06T05:13:23;2.30;99.90
13982;DHT22;7065;50.880;5.502;2023-04-06T05:15:48;2.30;99.90
13982;DHT22;7065;50.880;5.502;2023-04-06T05:18:14;2.40;99.90
13982;DHT22;7065;50.880;5.502;2023-04-06T05:20:41;2.40;99.90
13982;DHT22;7065;50.880;5.502;2023-04-06T05:23:07;2.50;99.90
13982;DHT22;7065;50.880;5.502;2023-04-06T05:25:33;2.50;99.90
13982;DHT22;7065;50.880;5.502;2023-04-06T05:27:59;2.50;99.90
13982;DHT22;7065;50.880;5.502;2023-04-06T05:30:25;2.50;99.90
13982;DHT22;7065;50.880;5.502;2023-04-06T05:32:51;2.60;99.90
13982;DHT22;7065;50.880;5.502;2023-04-06T05:35:17;2.60;99.90
13982;DHT22;7065;50.880;5.502;2023-04-06T05:37:43;2.70;99.90
13982;DHT22;7065;50.880;5.502;2023-04-06T05:40:09;2.70;99.90
13982;DHT22;7065;50.880;5.502;2023-04-06T05:42:42;2.80;99.90
13982;DHT22;7065;50.880;5.502;2023-04-06T05:45:10;2.80;99.90
13982;DHT22;7065;50.880;5.502;2023-04-06T05:47:44;2.90;99.90
13982;DHT22;7065;50.880;5.502;2023-04-06T05:50:10;2.90;99.90
13982;DHT22;7065;50.880;5.502;2023-04-06T05:52:36;3.00;99.90
13982;DHT22;7065;50.880;5.502;2023-04-06T05:55:03;3.10;99.90
13982;DHT22;7065;50.880;5.502;2023-04-06T05:57:29;3.10;99.90
13982;DHT22;7065;50.880;5.502;2023-04-06T05:59:54;3.20;99.90
13982;DHT22;7065;50.880;5.502;2023-04-06T06:02:21;3.20;99.90
13982;DHT22;7065;50.880;5.502;2023-04-06T06:04:47;3.30;99.90
13982;DHT22;7065;50.880;5.502;2023-04-06T06:07:14;3.30;99.90
13982;DHT22;7065;50.880;5.502;2023-04-06T06:09:40;3.40;99.90
13982;DHT22;7065;50.880;5.502;2023-04-06T06:12:06;3.50;99.90
13982;DHT22;7065;50.880;5.502;2023-04-06T06:14:33;3.60;99.90
13982;DHT22;7065;50.880;5.502;2023-04-06T06:16:58;3.60;99.90
13982;DHT22;7065;50.880;5.502;2023-04-06T06:19:24;3.70;99.90
13982;DHT22;7065;50.880;5.502;2023-04-06T06:21:50;3.80;99.90
13982;DHT22;7065;50.880;5.502;2023-04-06T06:24:16;3.90;99.90
13982;DHT22;7065;50.880;5.502;2023-04-06T06:26:42;3.90;99.90
13982;DHT22;7065;50.880;5.502;2023-04-06T06:29:08;4.00;99.90
13982;DHT22;7065;50.880;5.502;2023-04-06T06:31:34;4.00;99.90
13982;DHT22;7065;50.880;5.502;2023-04-06T06:34:00;4.10;99.90
13982;DHT22;7065;50.880;5.502;2023-04-06T06:36:27;4.20;99.90
13982;DHT22;7065;50.880;5.502;2023-04-06T06:38:53;4.20;99.90
13982;DHT22;7065;50.880;5.502;2023-04-06T06:41:19;4.30;99.90
13982;DHT22;7065;50.880;5.502;2023-04-06T06:43:44;4.40;99.90
13982;DHT22;7065;50.880;5.502;2023-04-06T06:46:10;4.40;99.90
13982;DHT22;7065;50.880;5.502;2023-04-06T06:48:36;4.40;99.90
13982;DHT22;7065;50.880;5.502;2023-04-06T06:51:02;4.50;99.90
13982;DHT22;7065;50.880;5.502;2023-04-06T06:53:28;4.60;99.90
13982;DHT22;7065;50.880;5.502;2023-04-06T06:55:54;4.70;99.90
13982;DHT22;7065;50.880;5.502;2023-04-06T06:58:19;4.70;99.90
13982;DHT22;7065;50.880;5.502;2023-04-06T07:00:46;4.90;99.90
13982;DHT22;7065;50.880;5.502;2023-04-06T07:03:12;5.00;99.90
13982;DHT22;7065;50.880;5.502;2023-04-06T07:05:38;5.10;99.90
13982;DHT22;7065;50.880;5.502;2023-04-06T07:08:04;5.20;99.90
13982;DHT22;7065;50.880;5.502;2023-04-06T07:10:30;5.30;99.90
13982;DHT22;7065;50.880;5.502;2023-04-06T07:12:55;5.40;99.90
13982;DHT22;7065;50.880;5.502;2023-04-06T07:15:21;5.50;99.90
13982;DHT22;7065;50.880;5.502;2023-04-06T07:17:47;5.60;99.90
13982;DHT22;7065;50.880;5.502;2023-04-06T07:20:13;5.70;99.90
13982;DHT22;7065;50.880;5.502;2023-04-06T07:22:40;5.80;99.90
13982;DHT22;7065;50.880;5.502;2023-04-06T07:25:06;5.90;99.90
13982;DHT22;7065;50.880;5.502;2023-04-06T07:27:32;6.00;99.90
13982;DHT22;7065;50.880;5.502;2023-04-06T07:29:58;6.10;99.90
13982;DHT22;7065;50.880;5.502;2023-04-06T07:32:23;6.10;99.90
13982;DHT22;7065;50.880;5.502;2023-04-06T07:34:49;6.20;99.90
13982;DHT22;7065;50.880;5.502;2023-04-06T07:37:15;6.20;99.90
13982;DHT22;7065;50.880;5.502;2023-04-06T07:39:41;6.30;99.90
13982;DHT22;7065;50.880;5.502;2023-04-06T07:42:07;6.40;99.90
13982;DHT22;7065;50.880;5.502;2023-04-06T07:44:32;6.50;99.90
13982;DHT22;7065;50.880;5.502;2023-04-06T07:46:58;6.60;99.90
13982;DHT22;7065;50.880;5.502;2023-04-06T07:49:24;6.80;99.90
13982;DHT22;7065;50.880;5.502;2023-04-06T07:51:49;6.90;99.90
13982;DHT22;7065;50.880;5.502;2023-04-06T07:54:15;7.10;99.90
13982;DHT22;7065;50.880;5.502;2023-04-06T07:56:41;7.10;99.90
13982;DHT22;7065;50.880;5.502;2023-04-06T07:59:06;7.30;99.90
13982;DHT22;7065;50.880;5.502;2023-04-06T08:01:32;7.30;99.90
13982;DHT22;7065;50.880;5.502;2023-04-06T08:03:58;7.40;99.90
13982;DHT22;7065;50.880;5.502;2023-04-06T08:06:24;7.40;99.90
13982;DHT22;7065;50.880;5.502;2023-04-06T08:08:50;7.50;99.90
13982;DHT22;7065;50.880;5.502;2023-04-06T08:11:16;7.50;99.90
13982;DHT22;7065;50.880;5.502;2023-04-06T08:13:41;7.50;99.90
13982;DHT22;7065;50.880;5.502;2023-04-06T08:16:07;7.50;99.90
13982;DHT22;7065;50.880;5.502;2023-04-06T08:18:33;7.60;99.90
13982;DHT22;7065;50.880;5.502;2023-04-06T08:20:58;7.50;99.90
13982;DHT22;7065;50.880;5.502;2023-04-06T08:23:24;7.50;99.90
13982;DHT22;7065;50.880;5.502;2023-04-06T08:25:51;7.50;99.90
13982;DHT22;7065;50.880;5.502;2023-04-06T08:28:20;7.60;99.90
13982;DHT22;7065;50.880;5.502;2023-04-06T08:30:45;7.60;99.90
13982;DHT22;7065;50.880;5.502;2023-04-06T08:33:11;7.70;99.90
13982;DHT22;7065;50.880;5.502;2023-04-06T08:35:37;7.70;99.90
13982;DHT22;7065;50.880;5.502;2023-04-06T08:38:03;7.70;99.90
13982;DHT22;7065;50.880;5.502;2023-04-06T08:40:29;7.80;99.90
13982;DHT22;7065;50.880;5.502;2023-04-06T08:42:56;7.90;99.90
13982;DHT22;7065;50.880;5.502;2023-04-06T08:45:22;8.00;99.90
13982;DHT22;7065;50.880;5.502;2023-04-06T08:47:50;8.10;99.90
13982;DHT22;7065;50.880;5.502;2023-04-06T08:50:17;8.20;99.90
13982;DHT22;7065;50.880;5.502;2023-04-06T08:52:45;8.30;99.90
13982;DHT22;7065;50.880;5.502;2023-04-06T08:55:12;8.40;99.90
13982;DHT22;7065;50.880;5.502;2023-04-06T08:57:38;8.50;99.90
13982;DHT22;7065;50.880;5.502;2023-04-06T09:00:04;8.60;99.90
13982;DHT22;7065;50.880;5.502;2023-04-06T09:02:31;8.60;99.90
13982;DHT22;7065;50.880;5.502;2023-04-06T09:04:59;8.70;99.90
13982;DHT22;7065;50.880;5.502;2023-04-06T09:07:25;8.70;99.90
13982;DHT22;7065;50.880;5.502;2023-04-06T09:09:51;8.80;99.90
13982;DHT22;7065;50.880;5.502;2023-04-06T09:12:24;8.80;99.90
13982;DHT22;7065;50.880;5.502;2023-04-06T09:14:50;8.90;99.90
13982;DHT22;7065;50.880;5.502;2023-04-06T09:17:24;8.80;99.90
13982;DHT22;7065;50.880;5.502;2023-04-06T09:19:50;8.90;99.90
13982;DHT22;7065;50.880;5.502;2023-04-06T09:22:17;8.90;99.90
13982;DHT22;7065;50.880;5.502;2023-04-06T09:24:48;9.00;99.90
13982;DHT22;7065;50.880;5.502;2023-04-06T09:27:15;9.10;99.90
13982;DHT22;7065;50.880;5.502;2023-04-06T09:29:41;9.10;99.90
13982;DHT22;7065;50.880;5.502;2023-04-06T09:32:08;9.10;99.90
13982;DHT22;7065;50.880;5.502;2023-04-06T09:34:38;9.10;99.90
13982;DHT22;7065;50.880;5.502;2023-04-06T09:37:17;9.10;99.90
13982;DHT22;7065;50.880;5.502;2023-04-06T09:39:44;9.10;99.90
13982;DHT22;7065;50.880;5.502;2023-04-06T09:42:22;9.00;99.90
13982;DHT22;7065;50.880;5.502;2023-04-06T09:44:49;9.00;99.90
13982;DHT22;7065;50.880;5.502;2023-04-06T09:47:15;8.90;99.90
13982;DHT22;7065;50.880;5.502;2023-04-06T09:49:43;9.00;99.90
13982;DHT22;7065;50.880;5.502;2023-04-06T09:52:11;9.00;99.90
13982;DHT22;7065;50.880;5.502;2023-04-06T09:54:38;9.00;99.90
13982;DHT22;7065;50.880;5.502;2023-04-06T09:57:07;9.00;99.90
13982;DHT22;7065;50.880;5.502;2023-04-06T10:02:24;9.00;99.90
13982;DHT22;7065;50.880;5.502;2023-04-06T10:05:02;9.00;99.90
13982;DHT22;7065;50.880;5.502;2023-04-06T10:07:31;8.80;99.90
13982;DHT22;7065;50.880;5.502;2023-04-06T10:09:58;8.80;99.90
13982;DHT22;7065;50.880;5.502;2023-04-06T10:12:26;8.80;99.90
13982;DHT22;7065;50.880;5.502;2023-04-06T10:14:51;8.60;99.90
13982;DHT22;7065;50.880;5.502;2023-04-06T10:17:17;8.60;99.90
13982;DHT22;7065;50.880;5.502;2023-04-06T10:19:58;8.70;99.90
13982;DHT22;7065;50.880;5.502;2023-04-06T10:22:33;8.70;99.90
13982;DHT22;7065;50.880;5.502;2023-04-06T10:25:00;8.70;99.90
13982;DHT22;7065;50.880;5.502;2023-04-06T10:27:30;8.80;99.90
13982;DHT22;7065;50.880;5.502;2023-04-06T10:30:02;8.90;99.90
13982;DHT22;7065;50.880;5.502;2023-04-06T10:32:35;9.00;99.90
13982;DHT22;7065;50.880;5.502;2023-04-06T10:35:09;9.10;99.90
13982;DHT22;7065;50.880;5.502;2023-04-06T10:38:01;9.00;99.90
13982;DHT22;7065;50.880;5.502;2023-04-06T10:40:27;8.90;99.90
13982;DHT22;7065;50.880;5.502;2023-04-06T10:42:54;8.80;99.90
13982;DHT22;7065;50.880;5.502;2023-04-06T10:45:25;8.80;99.90
13982;DHT22;7065;50.880;5.502;2023-04-06T10:47:55;8.70;99.90
13982;DHT22;7065;50.880;5.502;2023-04-06T10:50:21;8.60;99.90
13982;DHT22;7065;50.880;5.502;2023-04-06T10:53:01;8.60;99.90
13982;DHT22;7065;50.880;5.502;2023-04-06T10:55:31;8.60;99.90
13982;DHT22;7065;50.880;5.502;2023-04-06T10:57:56;8.60;99.90
13982;DHT22;7065;50.880;5.502;2023-04-06T11:00:22;8.60;99.90
13982;DHT22;7065;50.880;5.502;2023-04-06T11:02:48;8.60;99.90
13982;DHT22;7065;50.880;5.502;2023-04-06T11:05:15;8.60;99.90
13982;DHT22;7065;50.880;5.502;2023-04-06T11:07:41;8.60;99.90
13982;DHT22;7065;50.880;5.502;2023-04-06T11:10:10;8.60;99.90
13982;DHT22;7065;50.880;5.502;2023-04-06T11:12:35;8.70;99.90
13982;DHT22;7065;50.880;5.502;2023-04-06T11:15:03;8.60;99.90
13982;DHT22;7065;50.880;5.502;2023-04-06T11:17:34;8.60;99.90
13982;DHT22;7065;50.880;5.502;2023-04-06T11:20:01;8.60;99.90
13982;DHT22;7065;50.880;5.502;2023-04-06T11:22:28;8.60;99.90
13982;DHT22;7065;50.880;5.502;2023-04-06T11:25:07;8.60;99.90
13982;DHT22;7065;50.880;5.502;2023-04-06T11:27:36;8.70;99.90
13982;DHT22;7065;50.880;5.502;2023-04-06T11:30:04;8.70;99.90
13982;DHT22;7065;50.880;5.502;2023-04-06T11:32:43;8.70;99.90
13982;DHT22;7065;50.880;5.502;2023-04-06T11:35:20;8.70;99.90
13982;DHT22;7065;50.880;5.502;2023-04-06T11:37:46;8.70;99.90
13982;DHT22;7065;50.880;5.502;2023-04-06T11:40:12;8.70;99.90
13982;DHT22;7065;50.880;5.502;2023-04-06T11:42:37;8.70;99.90
13982;DHT22;7065;50.880;5.502;2023-04-06T11:45:04;8.70;99.90
13982;DHT22;7065;50.880;5.502;2023-04-06T11:47:36;8.60;99.90
13982;DHT22;7065;50.880;5.502;2023-04-06T11:50:10;8.60;99.90
13982;DHT22;7065;50.880;5.502;2023-04-06T11:52:36;8.60;99.90
13982;DHT22;7065;50.880;5.502;2023-04-06T11:55:16;8.60;99.90
13982;DHT22;7065;50.880;5.502;2023-04-06T11:57:42;8.70;99.90
13982;DHT22;7065;50.880;5.502;2023-04-06T12:00:09;8.70;99.90
13982;DHT22;7065;50.880;5.502;2023-04-06T12:02:36;8.70;99.90
13982;DHT22;7065;50.880;5.502;2023-04-06T12:05:03;8.60;99.90
13982;DHT22;7065;50.880;5.502;2023-04-06T12:07:29;8.70;99.90
13982;DHT22;7065;50.880;5.502;2023-04-06T12:09:55;8.70;99.90
13982;DHT22;7065;50.880;5.502;2023-04-06T12:12:21;8.70;99.90
13982;DHT22;7065;50.880;5.502;2023-04-06T12:14:47;8.70;99.90
13982;DHT22;7065;50.880;5.502;2023-04-06T12:17:12;8.70;99.90
13982;DHT22;7065;50.880;5.502;2023-04-06T12:19:38;8.60;99.90
13982;DHT22;7065;50.880;5.502;2023-04-06T12:22:04;8.60;99.90
13982;DHT22;7065;50.880;5.502;2023-04-06T12:24:30;8.60;99.90
13982;DHT22;7065;50.880;5.502;2023-04-06T12:26:56;8.60;99.90
13982;DHT22;7065;50.880;5.502;2023-04-06T12:29:24;8.60;99.90
13982;DHT22;7065;50.880;5.502;2023-04-06T12:31:50;8.60;99.90
13982;DHT22;7065;50.880;5.502;2023-04-06T12:34:16;8.50;99.90
13982;DHT22;7065;50.880;5.502;2023-04-06T12:36:42;8.60;99.90
13982;DHT22;7065;50.880;5.502;2023-04-06T12:39:07;8.50;99.90
13982;DHT22;7065;50.880;5.502;2023-04-06T12:41:33;8.50;99.90
13982;DHT22;7065;50.880;5.502;2023-04-06T12:44:00;8.50;99.90
13982;DHT22;7065;50.880;5.502;2023-04-06T12:46:27;8.50;99.90
13982;DHT22;7065;50.880;5.502;2023-04-06T12:48:55;8.60;99.90
13982;DHT22;7065;50.880;5.502;2023-04-06T12:51:21;8.50;99.90
13982;DHT22;7065;50.880;5.502;2023-04-06T12:53:48;8.50;99.90
13982;DHT22;7065;50.880;5.502;2023-04-06T12:56:15;8.50;99.90
13982;DHT22;7065;50.880;5.502;2023-04-06T12:58:41;8.60;99.90
13982;DHT22;7065;50.880;5.502;2023-04-06T13:01:07;8.60;99.90
13982;DHT22;7065;50.880;5.502;2023-04-06T13:03:33;8.60;99.90
13982;DHT22;7065;50.880;5.502;2023-04-06T13:06:00;8.70;99.90
13982;DHT22;7065;50.880;5.502;2023-04-06T13:08:26;8.70;99.90
13982;DHT22;7065;50.880;5.502;2023-04-06T13:10:53;8.70;99.90
13982;DHT22;7065;50.880;5.502;2023-04-06T13:13:24;8.80;99.90
13982;DHT22;7065;50.880;5.502;2023-04-06T13:15:51;8.80;99.90
13982;DHT22;7065;50.880;5.502;2023-04-06T13:18:16;8.80;99.90
13982;DHT22;7065;50.880;5.502;2023-04-06T13:20:42;8.80;99.90
13982;DHT22;7065;50.880;5.502;2023-04-06T13:23:08;8.80;99.90
13982;DHT22;7065;50.880;5.502;2023-04-06T13:25:34;8.80;99.90
13982;DHT22;7065;50.880;5.502;2023-04-06T13:28:00;8.90;99.90
13982;DHT22;7065;50.880;5.502;2023-04-06T13:30:26;8.90;99.90
13982;DHT22;7065;50.880;5.502;2023-04-06T13:32:52;8.90;99.90
13982;DHT22;7065;50.880;5.502;2023-04-06T13:35:18;8.90;99.90
13982;DHT22;7065;50.880;5.502;2023-04-06T13:37:44;8.90;99.90
13982;DHT22;7065;50.880;5.502;2023-04-06T13:40:10;8.90;99.90
13982;DHT22;7065;50.880;5.502;2023-04-06T13:42:36;9.00;99.90
13982;DHT22;7065;50.880;5.502;2023-04-06T13:45:04;9.10;99.90
13982;DHT22;7065;50.880;5.502;2023-04-06T13:47:29;9.10;99.90
13982;DHT22;7065;50.880;5.502;2023-04-06T13:49:55;9.10;99.90
13982;DHT22;7065;50.880;5.502;2023-04-06T13:52:21;9.10;99.90
13982;DHT22;7065;50.880;5.502;2023-04-06T13:54:49;9.10;99.90
13982;DHT22;7065;50.880;5.502;2023-04-06T13:57:15;9.10;99.90
13982;DHT22;7065;50.880;5.502;2023-04-06T13:59:40;9.10;99.90
13982;DHT22;7065;50.880;5.502;2023-04-06T14:02:09;9.10;99.90
13982;DHT22;7065;50.880;5.502;2023-04-06T14:04:35;9.20;99.90
13982;DHT22;7065;50.880;5.502;2023-04-06T14:07:02;9.20;99.90
13982;DHT22;7065;50.880;5.502;2023-04-06T14:09:28;9.20;99.90
13982;DHT22;7065;50.880;5.502;2023-04-06T14:11:54;9.20;99.90
13982;DHT22;7065;50.880;5.502;2023-04-06T14:14:20;9.20;99.90
13982;DHT22;7065;50.880;5.502;2023-04-06T14:16:47;9.10;99.90
13982;DHT22;7065;50.880;5.502;2023-04-06T14:19:14;9.10;99.90
13982;DHT22;7065;50.880;5.502;2023-04-06T14:21:46;9.00;99.90
13982;DHT22;7065;50.880;5.502;2023-04-06T14:24:13;9.00;99.90
13982;DHT22;7065;50.880;5.502;2023-04-06T14:26:40;8.90;99.90
13982;DHT22;7065;50.880;5.502;2023-04-06T14:29:07;8.90;99.90
13982;DHT22;7065;50.880;5.502;2023-04-06T14:31:34;8.90;99.90
13982;DHT22;7065;50.880;5.502;2023-04-06T14:34:01;8.90;99.90
13982;DHT22;7065;50.880;5.502;2023-04-06T14:36:28;8.90;99.90
13982;DHT22;7065;50.880;5.502;2023-04-06T14:38:57;8.90;99.90
13982;DHT22;7065;50.880;5.502;2023-04-06T14:41:23;9.00;99.90
13982;DHT22;7065;50.880;5.502;2023-04-06T14:43:50;9.10;99.90
13982;DHT22;7065;50.880;5.502;2023-04-06T14:46:17;9.20;99.90
13982;DHT22;7065;50.880;5.502;2023-04-06T14:48:44;9.20;99.90
13982;DHT22;7065;50.880;5.502;2023-04-06T14:51:10;9.30;99.90
13982;DHT22;7065;50.880;5.502;2023-04-06T14:53:37;9.30;99.90
13982;DHT22;7065;50.880;5.502;2023-04-06T14:56:03;9.30;99.90
13982;DHT22;7065;50.880;5.502;2023-04-06T14:58:29;9.10;99.90
13982;DHT22;7065;50.880;5.502;2023-04-06T15:00:59;9.10;99.90
13982;DHT22;7065;50.880;5.502;2023-04-06T15:03:26;9.10;99.90
13982;DHT22;7065;50.880;5.502;2023-04-06T15:05:53;9.00;99.90
13982;DHT22;7065;50.880;5.502;2023-04-06T15:08:19;9.00;99.90
13982;DHT22;7065;50.880;5.502;2023-04-06T15:10:50;9.00;99.90
13982;DHT22;7065;50.880;5.502;2023-04-06T15:13:17;8.90;99.90
13982;DHT22;7065;50.880;5.502;2023-04-06T15:15:43;8.90;99.90
13982;DHT22;7065;50.880;5.502;2023-04-06T15:18:10;8.80;99.90
13982;DHT22;7065;50.880;5.502;2023-04-06T15:20:36;8.80;99.90
13982;DHT22;7065;50.880;5.502;2023-04-06T15:23:02;8.80;99.90
13982;DHT22;7065;50.880;5.502;2023-04-06T15:25:29;8.70;99.90
13982;DHT22;7065;50.880;5.502;2023-04-06T15:27:56;8.70;99.90
13982;DHT22;7065;50.880;5.502;2023-04-06T15:30:22;8.70;99.90
13982;DHT22;7065;50.880;5.502;2023-04-06T15:32:54;8.70;99.90
13982;DHT22;7065;50.880;5.502;2023-04-06T15:35:20;8.70;99.90
13982;DHT22;7065;50.880;5.502;2023-04-06T15:37:46;8.60;99.90
13982;DHT22;7065;50.880;5.502;2023-04-06T15:40:12;8.60;99.90
13982;DHT22;7065;50.880;5.502;2023-04-06T15:42:39;8.60;99.90
13982;DHT22;7065;50.880;5.502;2023-04-06T15:45:08;8.60;99.90
13982;DHT22;7065;50.880;5.502;2023-04-06T15:47:35;8.60;99.90
13982;DHT22;7065;50.880;5.502;2023-04-06T15:50:00;8.60;99.90
13982;DHT22;7065;50.880;5.502;2023-04-06T15:52:26;8.50;99.90
13982;DHT22;7065;50.880;5.502;2023-04-06T15:54:52;8.50;99.90
13982;DHT22;7065;50.880;5.502;2023-04-06T15:57:17;8.50;99.90
13982;DHT22;7065;50.880;5.502;2023-04-06T15:59:43;8.50;99.90
13982;DHT22;7065;50.880;5.502;2023-04-06T16:02:09;8.50;99.90